KMKT/MKT METAR and TAF weather

Enter ICAO airport designator
Station Type Date Time Source
KMKT METAR 2018/12/13 08:25 UTC NOAA

KMKT 130825Z AUTO 12010KT 3/4SM -SN BR OVC002 M06/M06 A2988 RMK AO2 SNB18 P0000 FZRANO


Station Type Date Time Source
KMKT Decoded METAR 2018/12/13 08:25 UTC NOAA

Mankato, Mankato Regional Airport, MN, United States (KMKT) 44-13N 093-55W
Dec 13, 2018 - 03:25 AM EST / 2018.12.13 0825 UTC
Wind: from the ESE (120 degrees) at 12 MPH (10 KT):0
Visibility: 3/4 mile(s):0
Sky conditions: overcast
Weather: light snow; mist
Precipitation last hour: A trace
Temperature: 21 F (-6 C)
Windchill: 8 F (-13 C):1
Dew Point: 21 F (-6 C)
Relative Humidity: 100%
Pressure (altimeter): 29.88 in. Hg (1011 hPa)
ob: KMKT 130825Z AUTO 12010KT 3/4SM -SN BR OVC002 M06/M06 A2988 RMK AO2 SNB18 P0000 FZRANO
cycle: 8

Station Type Date Time Source
KMKT TAF 2018/12/13 08:33 UTC NOAA

TAF
AMD KMKT 130731Z 1308/1406 17006KT 1SM BR OVC002
FM130900 15005KT 1/2SM FZFG OVC002
FM131600 24006KT 1 1/2SM BR OVC005
FM131900 30009KT P6SM OVC008
FM132300 31008KT P6SM SCT010
FM140300 28005KT P6SM SKC


Example: see airport list